Time;durP1;ratioP1;P1;durP2;ratioP2;P2;SDS_P1;SDS_P2;PMS_P1;PMS_P2;Temp;Humidity;BMP_temperature;BMP_pressure;BME280_temperature;BME280_humidity;BME280_pressure;Samples;Min_cycle;Max_cycle;Signal;HPM_P1;HPM_P2
2023/03/05 00:00:18;;;;;;;;;;;7.10;99.90;;;;;;7340093;19;111253;-86
2023/03/05 00:02:45;;;;;;;;;;;7.10;99.90;;;;;;7336048;19;109073;-85
2023/03/05 00:05:12;;;;;;;;;;;7.10;99.90;;;;;;7331889;19;109423;-84
2023/03/05 00:07:40;;;;;;;;;;;7.10;99.90;;;;;;7338028;19;109357;-85
2023/03/05 00:10:07;;;;;;;;;;;7.10;99.90;;;;;;7335221;19;108966;-85
2023/03/05 00:12:34;;;;;;;;;;;7.10;99.90;;;;;;7336697;19;110260;-85
2023/03/05 00:15:01;;;;;;;;;;;7.10;99.90;;;;;;7338008;19;109093;-85
2023/03/05 00:17:28;;;;;;;;;;;7.10;99.90;;;;;;7336502;19;109627;-85
2023/03/05 00:19:56;;;;;;;;;;;7.10;99.90;;;;;;7333487;19;110101;-86
2023/03/05 00:22:23;;;;;;;;;;;7.10;99.90;;;;;;7342829;19;109613;-85
2023/03/05 00:24:50;;;;;;;;;;;7.10;99.90;;;;;;7332655;19;110825;-85
2023/03/05 00:27:17;;;;;;;;;;;7.10;99.90;;;;;;7334837;19;111074;-86
2023/03/05 00:29:45;;;;;;;;;;;7.10;99.90;;;;;;7332973;19;109484;-86
2023/03/05 00:32:11;;;;;;;;;;;7.10;99.90;;;;;;7334797;19;110435;-85
2023/03/05 00:34:38;;;;;;;;;;;7.10;99.90;;;;;;7333888;19;108912;-86
2023/03/05 00:37:06;;;;;;;;;;;7.10;99.90;;;;;;7334996;19;108837;-85
2023/03/05 00:39:33;;;;;;;;;;;7.10;99.90;;;;;;7331314;19;110133;-85
2023/03/05 00:42:00;;;;;;;;;;;7.10;99.90;;;;;;7340811;19;112946;-85
2023/03/05 00:44:27;;;;;;;;;;;7.10;99.90;;;;;;7328707;19;110065;-85
2023/03/05 00:46:54;;;;;;;;;;;7.00;99.90;;;;;;7335524;19;109487;-85
2023/03/05 00:49:20;;;;;;;;;;;7.00;99.90;;;;;;7334095;19;109747;-85
2023/03/05 00:51:47;;;;;;;;;;;7.00;99.90;;;;;;7332417;19;110191;-84
2023/03/05 00:54:14;;;;;;;;;;;7.10;99.90;;;;;;7332961;19;108499;-85
2023/03/05 00:56:41;;;;;;;;;;;7.10;99.90;;;;;;7334259;19;109061;-85
2023/03/05 00:59:09;;;;;;;;;;;7.10;99.90;;;;;;7333726;19;111266;-85
2023/03/05 01:01:36;;;;;;;;;;;7.10;99.90;;;;;;7332707;19;109137;-86
2023/03/05 01:04:03;;;;;;;;;;;7.00;99.90;;;;;;7336768;19;109108;-85
2023/03/05 01:06:29;;;;;;;;;;;7.10;99.90;;;;;;7331546;19;108978;-85
2023/03/05 01:08:58;;;;;;;;;;;7.00;99.90;;;;;;7334254;19;110512;-85
2023/03/05 01:11:25;;;;;;;;;;;7.00;99.90;;;;;;7331854;19;112657;-85
2023/03/05 01:13:52;;;;;;;;;;;7.00;99.90;;;;;;7333155;19;109012;-85
2023/03/05 01:16:19;;;;;;;;;;;7.00;99.90;;;;;;7338868;19;109465;-85
2023/03/05 01:18:46;;;;;;;;;;;7.00;99.90;;;;;;7340163;19;110096;-84
2023/03/05 01:21:13;;;;;;;;;;;7.00;99.90;;;;;;7341088;19;109253;-85
2023/03/05 01:23:40;;;;;;;;;;;6.90;99.90;;;;;;7339257;19;113328;-86
2023/03/05 01:26:08;;;;;;;;;;;6.90;99.90;;;;;;7347347;19;110502;-86
2023/03/05 01:28:36;;;;;;;;;;;6.90;99.90;;;;;;7338124;19;109403;-85
2023/03/05 01:31:08;;;;;;;;;;;6.90;99.90;;;;;;7339751;19;110244;-85
2023/03/05 01:33:35;;;;;;;;;;;6.90;99.90;;;;;;7340706;19;108823;-85
2023/03/05 01:36:05;;;;;;;;;;;6.90;99.90;;;;;;7343058;19;109383;-85
2023/03/05 01:38:32;;;;;;;;;;;6.90;99.90;;;;;;7339723;19;110189;-86
2023/03/05 01:40:59;;;;;;;;;;;6.90;99.90;;;;;;7341855;19;108904;-85
2023/03/05 01:43:27;;;;;;;;;;;6.90;99.90;;;;;;7338501;19;109690;-85
2023/03/05 01:46:10;;;;;;;;;;;6.80;99.90;;;;;;7339701;19;110323;-86
2023/03/05 01:48:37;;;;;;;;;;;6.80;99.90;;;;;;7346397;19;108998;-85
2023/03/05 01:51:05;;;;;;;;;;;6.90;99.90;;;;;;7339191;19;110669;-85
2023/03/05 01:53:32;;;;;;;;;;;6.90;99.90;;;;;;7338729;19;109261;-84
2023/03/05 01:56:20;;;;;;;;;;;6.90;99.90;;;;;;7341881;19;109179;-86
2023/03/05 01:59:03;;;;;;;;;;;6.90;99.90;;;;;;7341884;19;109102;-85
2023/03/05 02:01:41;;;;;;;;;;;6.80;99.90;;;;;;7340097;19;110075;-85
2023/03/05 02:04:09;;;;;;;;;;;6.80;99.90;;;;;;7339225;19;108950;-85
2023/03/05 02:06:38;;;;;;;;;;;6.90;99.90;;;;;;7340063;19;112112;-85
2023/03/05 02:09:05;;;;;;;;;;;6.80;99.90;;;;;;7336652;19;109528;-86
2023/03/05 02:11:33;;;;;;;;;;;6.80;99.90;;;;;;7346877;19;109179;-84
2023/03/05 02:14:01;;;;;;;;;;;6.80;99.90;;;;;;7340552;19;108984;-85
2023/03/05 02:16:34;;;;;;;;;;;6.80;99.90;;;;;;7342142;19;109647;-86
2023/03/05 02:19:03;;;;;;;;;;;6.80;99.90;;;;;;7339427;19;109357;-85
2023/03/05 02:21:41;;;;;;;;;;;6.80;99.90;;;;;;7336080;19;112563;-85
2023/03/05 02:24:10;;;;;;;;;;;6.80;99.90;;;;;;7338706;19;109384;-85
2023/03/05 02:26:37;;;;;;;;;;;6.80;99.90;;;;;;7336295;19;109154;-85
2023/03/05 02:29:06;;;;;;;;;;;6.80;99.90;;;;;;7337493;19;109712;-84
2023/03/05 02:31:33;;;;;;;;;;;6.80;99.90;;;;;;7342147;19;109509;-84
2023/03/05 02:34:01;;;;;;;;;;;6.70;99.90;;;;;;7338409;19;108436;-85
2023/03/05 02:36:28;;;;;;;;;;;6.80;99.90;;;;;;7333089;19;110383;-85
2023/03/05 02:38:58;;;;;;;;;;;6.70;99.90;;;;;;7338236;19;111004;-85
2023/03/05 02:41:25;;;;;;;;;;;6.70;99.90;;;;;;7338120;19;108760;-85
2023/03/05 02:43:52;;;;;;;;;;;6.70;99.90;;;;;;7337420;19;108852;-86
2023/03/05 02:46:19;;;;;;;;;;;6.70;99.90;;;;;;7336466;19;109977;-85
2023/03/05 02:48:46;;;;;;;;;;;6.70;99.90;;;;;;7337465;19;108925;-85
2023/03/05 02:51:19;;;;;;;;;;;6.70;99.90;;;;;;7336876;19;109388;-85
2023/03/05 02:53:46;;;;;;;;;;;6.70;99.90;;;;;;7340947;19;109693;-85
2023/03/05 02:56:13;;;;;;;;;;;6.70;99.90;;;;;;7336673;19;109249;-84
2023/03/05 02:58:40;;;;;;;;;;;6.70;99.90;;;;;;7332886;19;110687;-84
2023/03/05 03:01:08;;;;;;;;;;;6.70;99.90;;;;;;7333152;19;110189;-85
2023/03/05 03:03:36;;;;;;;;;;;6.70;99.90;;;;;;7338735;19;109448;-85
2023/03/05 03:06:03;;;;;;;;;;;6.70;99.90;;;;;;7338480;19;111538;-84
2023/03/05 03:08:30;;;;;;;;;;;6.70;99.90;;;;;;7336913;19;112387;-84
2023/03/05 03:11:03;;;;;;;;;;;6.70;99.90;;;;;;7338962;19;109624;-84
2023/03/05 03:13:29;;;;;;;;;;;6.70;99.90;;;;;;7335188;19;112027;-84
2023/03/05 03:16:07;;;;;;;;;;;6.60;99.90;;;;;;7342910;19;108379;-85
2023/03/05 03:18:34;;;;;;;;;;;6.60;99.90;;;;;;7338874;19;110395;-85
2023/03/05 03:21:02;;;;;;;;;;;6.60;99.90;;;;;;7337974;19;108715;-84
2023/03/05 03:23:29;;;;;;;;;;;6.60;99.90;;;;;;7334119;19;109806;-85
2023/03/05 03:25:57;;;;;;;;;;;6.60;99.90;;;;;;7337106;19;109874;-84
2023/03/05 03:28:24;;;;;;;;;;;6.50;99.90;;;;;;7334677;19;109023;-85
2023/03/05 03:30:51;;;;;;;;;;;6.50;99.90;;;;;;7334302;19;112346;-84
2023/03/05 03:33:18;;;;;;;;;;;6.40;99.90;;;;;;7336866;19;110013;-84
2023/03/05 03:35:45;;;;;;;;;;;6.40;99.90;;;;;;7332187;19;114262;-85
2023/03/05 03:38:12;;;;;;;;;;;6.40;99.90;;;;;;7337261;19;108829;-85
2023/03/05 03:40:40;;;;;;;;;;;6.40;99.90;;;;;;7337588;19;109401;-85
2023/03/05 03:43:07;;;;;;;;;;;6.40;99.90;;;;;;7335762;19;112611;-85
2023/03/05 03:45:34;;;;;;;;;;;6.40;99.90;;;;;;7333951;19;110409;-85
2023/03/05 03:48:01;;;;;;;;;;;6.40;99.90;;;;;;7338188;19;108663;-85
2023/03/05 03:50:28;;;;;;;;;;;6.30;99.90;;;;;;7330621;19;109509;-84
2023/03/05 03:52:55;;;;;;;;;;;6.40;99.90;;;;;;7334195;19;111477;-85
2023/03/05 03:55:22;;;;;;;;;;;6.40;99.90;;;;;;7338162;19;108814;-85
2023/03/05 03:57:49;;;;;;;;;;;6.40;99.90;;;;;;7335735;19;110121;-85
2023/03/05 04:00:16;;;;;;;;;;;6.40;99.90;;;;;;7338123;19;113028;-85
2023/03/05 04:02:43;;;;;;;;;;;6.40;99.90;;;;;;7336208;19;109318;-85
2023/03/05 04:05:10;;;;;;;;;;;6.40;99.90;;;;;;7337106;19;110955;-85
2023/03/05 04:07:37;;;;;;;;;;;6.50;99.90;;;;;;7333075;19;109255;-85
2023/03/05 04:10:04;;;;;;;;;;;6.40;99.90;;;;;;7336228;19;111698;-86
2023/03/05 04:12:31;;;;;;;;;;;6.40;99.90;;;;;;7334194;19;109812;-86
2023/03/05 04:14:59;;;;;;;;;;;6.40;99.90;;;;;;7335202;19;108562;-86
2023/03/05 04:17:25;;;;;;;;;;;6.30;99.90;;;;;;7336260;19;109484;-85
2023/03/05 04:19:52;;;;;;;;;;;6.30;99.90;;;;;;7337235;19;109927;-86
2023/03/05 04:22:19;;;;;;;;;;;6.40;99.90;;;;;;7342338;19;108317;-85
2023/03/05 04:24:46;;;;;;;;;;;6.30;99.90;;;;;;7331746;19;109370;-86
2023/03/05 04:27:13;;;;;;;;;;;6.30;99.90;;;;;;7339338;19;108645;-84
2023/03/05 04:29:40;;;;;;;;;;;6.30;99.90;;;;;;7337330;19;111153;-85
2023/03/05 04:32:07;;;;;;;;;;;6.30;99.90;;;;;;7339662;19;110332;-85
2023/03/05 04:34:35;;;;;;;;;;;6.40;99.90;;;;;;7334418;19;108963;-85
2023/03/05 04:37:02;;;;;;;;;;;6.40;99.90;;;;;;7338109;19;109056;-85
2023/03/05 04:39:29;;;;;;;;;;;6.40;99.90;;;;;;7336886;19;110206;-85
2023/03/05 04:41:56;;;;;;;;;;;6.30;99.90;;;;;;7339808;19;108853;-85
2023/03/05 04:44:24;;;;;;;;;;;6.30;99.90;;;;;;7333304;19;113692;-85
2023/03/05 04:46:51;;;;;;;;;;;6.30;99.90;;;;;;7335581;19;108613;-85
2023/03/05 04:49:19;;;;;;;;;;;6.30;99.90;;;;;;7335177;19;111860;-85
2023/03/05 04:51:46;;;;;;;;;;;6.30;99.90;;;;;;7339609;19;110487;-85
2023/03/05 04:54:13;;;;;;;;;;;6.30;99.90;;;;;;7340771;19;108392;-85
2023/03/05 04:56:40;;;;;;;;;;;6.30;99.90;;;;;;7339865;19;113233;-85
2023/03/05 04:59:07;;;;;;;;;;;6.30;99.90;;;;;;7339713;19;110954;-86
2023/03/05 05:01:34;;;;;;;;;;;6.40;99.90;;;;;;7343661;19;108910;-85
2023/03/05 05:04:01;;;;;;;;;;;6.30;99.90;;;;;;7345120;19;109368;-85
2023/03/05 05:06:28;;;;;;;;;;;6.30;99.90;;;;;;7341707;19;108652;-85
2023/03/05 05:08:55;;;;;;;;;;;6.30;99.90;;;;;;7339821;19;110235;-85
2023/03/05 05:11:22;;;;;;;;;;;6.30;99.90;;;;;;7342583;19;113147;-84
2023/03/05 05:13:49;;;;;;;;;;;6.30;99.90;;;;;;7342509;19;109518;-84
2023/03/05 05:16:15;;;;;;;;;;;6.30;99.90;;;;;;7338536;19;111848;-84
2023/03/05 05:18:43;;;;;;;;;;;6.30;99.90;;;;;;7341546;19;112326;-85
2023/03/05 05:21:11;;;;;;;;;;;6.30;99.90;;;;;;7341648;19;109020;-84
2023/03/05 05:23:39;;;;;;;;;;;6.30;99.90;;;;;;7337551;19;109261;-86
2023/03/05 05:26:07;;;;;;;;;;;6.30;99.90;;;;;;7342489;19;114138;-85
2023/03/05 05:28:34;;;;;;;;;;;6.40;99.90;;;;;;7334909;19;111607;-84
2023/03/05 05:31:05;;;;;;;;;;;6.30;99.90;;;;;;7335660;19;114024;-86
2023/03/05 05:33:32;;;;;;;;;;;6.30;99.90;;;;;;7339134;19;109352;-86
2023/03/05 05:36:03;;;;;;;;;;;6.30;99.90;;;;;;7338108;19;111357;-85
2023/03/05 05:38:30;;;;;;;;;;;6.30;99.90;;;;;;7336605;19;112210;-85
2023/03/05 05:41:24;;;;;;;;;;;6.30;99.90;;;;;;7339071;19;110619;-84
2023/03/05 05:43:51;;;;;;;;;;;6.30;99.90;;;;;;7339085;19;109494;-85
2023/03/05 05:46:19;;;;;;;;;;;6.30;99.90;;;;;;7339024;19;110500;-86
2023/03/05 05:48:46;;;;;;;;;;;6.30;99.90;;;;;;7343653;19;108544;-86
2023/03/05 05:51:15;;;;;;;;;;;6.30;99.90;;;;;;7335994;19;110214;-85
2023/03/05 05:53:42;;;;;;;;;;;6.30;99.90;;;;;;7337621;19;109507;-85
2023/03/05 05:56:10;;;;;;;;;;;6.30;99.90;;;;;;7336446;19;108823;-86
2023/03/05 05:58:37;;;;;;;;;;;6.30;99.90;;;;;;7338321;19;113415;-85
2023/03/05 06:01:25;;;;;;;;;;;6.30;99.90;;;;;;7336973;19;109248;-85
2023/03/05 06:03:52;;;;;;;;;;;6.30;99.90;;;;;;7338485;19;109997;-86
2023/03/05 06:06:20;;;;;;;;;;;6.30;99.90;;;;;;7338920;19;112076;-86
2023/03/05 06:08:47;;;;;;;;;;;6.30;99.90;;;;;;7338618;19;110523;-85
2023/03/05 06:11:15;;;;;;;;;;;6.30;99.90;;;;;;7342835;19;109225;-85
2023/03/05 06:13:45;;;;;;;;;;;6.30;99.90;;;;;;7338468;19;108566;-85
2023/03/05 06:16:13;;;;;;;;;;;6.30;99.90;;;;;;7337545;19;110205;-86
2023/03/05 06:18:40;;;;;;;;;;;6.30;99.90;;;;;;7338628;19;109896;-85
2023/03/05 06:21:09;;;;;;;;;;;6.30;99.90;;;;;;7337860;19;110111;-85
2023/03/05 06:23:37;;;;;;;;;;;6.30;99.90;;;;;;7338707;19;109405;-86
2023/03/05 06:26:05;;;;;;;;;;;6.30;99.90;;;;;;7334854;19;110275;-86
2023/03/05 06:28:33;;;;;;;;;;;6.30;99.90;;;;;;7338742;19;108813;-85
2023/03/05 06:31:01;;;;;;;;;;;6.30;99.90;;;;;;7337536;19;108865;-85
2023/03/05 06:33:28;;;;;;;;;;;6.30;99.90;;;;;;7343101;19;109968;-85
2023/03/05 06:35:55;;;;;;;;;;;6.30;99.90;;;;;;7337028;19;109225;-84
2023/03/05 06:38:22;;;;;;;;;;;6.30;99.90;;;;;;7338593;19;110467;-86
2023/03/05 06:40:49;;;;;;;;;;;6.30;99.90;;;;;;7334364;19;110464;-85
2023/03/05 06:43:16;;;;;;;;;;;6.30;99.90;;;;;;7341158;19;109929;-85
2023/03/05 06:45:43;;;;;;;;;;;6.30;99.90;;;;;;7338122;19;109992;-87
2023/03/05 06:48:11;;;;;;;;;;;6.30;99.90;;;;;;7340654;19;108714;-86
2023/03/05 06:50:38;;;;;;;;;;;6.30;99.90;;;;;;7337551;19;109272;-85
2023/03/05 06:53:05;;;;;;;;;;;6.30;99.90;;;;;;7344650;19;110042;-85
2023/03/05 06:55:38;;;;;;;;;;;6.30;99.90;;;;;;7335007;19;112329;-86
2023/03/05 06:58:05;;;;;;;;;;;6.30;99.90;;;;;;7337255;19;111832;-87
2023/03/05 07:00:32;;;;;;;;;;;6.30;99.90;;;;;;7339479;19;109753;-86
2023/03/05 07:02:59;;;;;;;;;;;6.20;99.90;;;;;;7337008;19;112359;-87
2023/03/05 07:05:26;;;;;;;;;;;6.30;99.90;;;;;;7336084;19;110320;-87
2023/03/05 07:07:53;;;;;;;;;;;6.30;99.90;;;;;;7341313;19;108696;-87
2023/03/05 07:10:20;;;;;;;;;;;6.30;99.90;;;;;;7337446;19;109206;-86
2023/03/05 07:12:47;;;;;;;;;;;6.30;99.90;;;;;;7334893;19;109680;-87
2023/03/05 07:15:14;;;;;;;;;;;6.30;99.90;;;;;;7342211;19;108902;-86
2023/03/05 07:17:41;;;;;;;;;;;6.30;99.90;;;;;;7337464;19;109546;-87
2023/03/05 07:20:08;;;;;;;;;;;6.40;99.90;;;;;;7335323;19;108523;-87
2023/03/05 07:22:36;;;;;;;;;;;6.40;99.90;;;;;;7338395;19;112618;-86
2023/03/05 07:25:03;;;;;;;;;;;6.50;99.90;;;;;;7339074;19;112780;-88
2023/03/05 07:27:33;;;;;;;;;;;6.50;99.90;;;;;;7339832;19;108924;-90
2023/03/05 07:30:00;;;;;;;;;;;6.50;99.90;;;;;;7337096;19;110365;-86
2023/03/05 07:32:27;;;;;;;;;;;6.50;99.90;;;;;;7337391;19;110211;-86
2023/03/05 07:34:54;;;;;;;;;;;6.60;99.90;;;;;;7336303;19;110027;-85
2023/03/05 07:37:21;;;;;;;;;;;6.60;99.90;;;;;;7340231;19;108803;-86
2023/03/05 07:39:49;;;;;;;;;;;6.60;99.90;;;;;;7336995;19;108626;-86
2023/03/05 07:42:16;;;;;;;;;;;6.70;99.90;;;;;;7337371;19;108914;-87
2023/03/05 07:44:43;;;;;;;;;;;6.70;99.90;;;;;;7334248;19;110376;-86
2023/03/05 07:47:10;;;;;;;;;;;6.80;99.90;;;;;;7337116;19;108985;-86
2023/03/05 07:49:40;;;;;;;;;;;6.80;99.90;;;;;;7336465;19;109647;-86
2023/03/05 07:52:07;;;;;;;;;;;6.80;99.90;;;;;;7334868;19;110868;-86
2023/03/05 07:54:37;;;;;;;;;;;6.80;99.90;;;;;;7338722;19;109355;-85
2023/03/05 07:57:05;;;;;;;;;;;6.80;99.90;;;;;;7339523;19;109449;-86
2023/03/05 07:59:31;;;;;;;;;;;6.90;99.90;;;;;;7341526;19;109995;-86
2023/03/05 08:01:58;;;;;;;;;;;6.90;99.90;;;;;;7335370;19;109691;-87
2023/03/05 08:04:25;;;;;;;;;;;6.90;99.90;;;;;;7333479;19;112672;-86
2023/03/05 08:09:23;;;;;;;;;;;7.00;99.90;;;;;;7335459;19;111562;-86
2023/03/05 08:11:50;;;;;;;;;;;7.00;99.90;;;;;;7333582;19;109621;-86
2023/03/05 08:14:17;;;;;;;;;;;7.10;99.90;;;;;;7336832;19;109606;-86
2023/03/05 08:16:45;;;;;;;;;;;7.10;99.90;;;;;;7331830;19;109709;-86
2023/03/05 08:19:14;;;;;;;;;;;7.10;99.90;;;;;;7332489;19;109132;-85
2023/03/05 08:21:40;;;;;;;;;;;7.10;99.90;;;;;;7335457;19;109650;-86
2023/03/05 08:24:09;;;;;;;;;;;7.10;99.90;;;;;;7334775;19;109841;-86
2023/03/05 08:26:40;;;;;;;;;;;7.20;99.90;;;;;;7332291;19;108760;-89
2023/03/05 08:29:08;;;;;;;;;;;7.30;99.90;;;;;;7337871;19;109064;-86
2023/03/05 08:31:37;;;;;;;;;;;7.30;99.90;;;;;;7334655;19;112478;-86
2023/03/05 08:34:05;;;;;;;;;;;7.30;99.90;;;;;;7334859;19;108304;-86
2023/03/05 08:36:32;;;;;;;;;;;7.30;99.90;;;;;;7333895;19;108828;-85
2023/03/05 08:38:59;;;;;;;;;;;7.30;99.90;;;;;;7334644;19;115362;-85
2023/03/05 08:41:26;;;;;;;;;;;7.30;99.90;;;;;;7333479;19;109237;-86
2023/03/05 08:43:53;;;;;;;;;;;7.40;99.90;;;;;;7339927;19;109043;-85
2023/03/05 08:46:20;;;;;;;;;;;7.40;99.90;;;;;;7335654;19;109575;-85
2023/03/05 08:48:47;;;;;;;;;;;7.40;99.90;;;;;;7332951;19;109339;-85
2023/03/05 08:51:24;;;;;;;;;;;7.40;99.90;;;;;;7337747;19;110993;-87
2023/03/05 08:53:52;;;;;;;;;;;7.50;99.90;;;;;;7333521;19;109053;-86
2023/03/05 08:56:20;;;;;;;;;;;7.50;99.90;;;;;;7333978;19;109413;-86
2023/03/05 08:58:57;;;;;;;;;;;7.60;99.90;;;;;;7334989;19;109983;-87
2023/03/05 09:01:24;;;;;;;;;;;7.60;99.90;;;;;;7327900;19;108927;-86
2023/03/05 09:03:52;;;;;;;;;;;7.60;99.90;;;;;;7330774;19;108863;-86
2023/03/05 09:06:19;;;;;;;;;;;7.70;99.90;;;;;;7330877;19;108856;-86
2023/03/05 09:08:46;;;;;;;;;;;7.80;99.90;;;;;;7332238;19;111677;-86
2023/03/05 09:11:13;;;;;;;;;;;7.80;99.90;;;;;;7334173;19;110700;-86
2023/03/05 09:13:40;;;;;;;;;;;7.80;99.90;;;;;;7333815;19;108554;-86
2023/03/05 09:16:09;;;;;;;;;;;7.90;99.90;;;;;;7331318;19;109456;-86
2023/03/05 09:18:38;;;;;;;;;;;7.90;99.90;;;;;;7331942;19;110648;-86
2023/03/05 09:21:06;;;;;;;;;;;8.00;99.90;;;;;;7333703;19;108625;-87
2023/03/05 09:23:36;;;;;;;;;;;8.00;99.90;;;;;;7332706;19;110575;-86
2023/03/05 09:26:04;;;;;;;;;;;8.00;99.90;;;;;;7338971;19;113115;-87
2023/03/05 09:28:32;;;;;;;;;;;8.10;99.90;;;;;;7332898;19;109659;-86
2023/03/05 09:31:06;;;;;;;;;;;8.20;99.90;;;;;;7331715;19;110556;-86
2023/03/05 09:33:34;;;;;;;;;;;8.20;99.90;;;;;;7335135;19;108792;-86
2023/03/05 09:36:01;;;;;;;;;;;8.30;99.90;;;;;;7334589;19;110745;-86
2023/03/05 09:38:28;;;;;;;;;;;8.30;99.90;;;;;;7340394;19;113575;-86
2023/03/05 09:41:06;;;;;;;;;;;8.30;99.90;;;;;;7342449;19;109126;-86
2023/03/05 09:43:56;;;;;;;;;;;8.30;99.90;;;;;;7342567;19;110246;-86
2023/03/05 09:46:46;;;;;;;;;;;8.40;99.90;;;;;;7340968;19;110847;-86
2023/03/05 09:49:13;;;;;;;;;;;8.40;99.90;;;;;;7347370;19;112048;-86
2023/03/05 09:51:41;;;;;;;;;;;8.50;99.90;;;;;;7342178;19;109666;-86
2023/03/05 09:54:14;;;;;;;;;;;8.50;99.90;;;;;;7340058;19;109425;-85
2023/03/05 09:56:43;;;;;;;;;;;8.50;99.90;;;;;;7340661;19;109726;-86
2023/03/05 09:59:16;;;;;;;;;;;8.50;99.90;;;;;;7340467;19;110023;-86
2023/03/05 10:01:44;;;;;;;;;;;8.60;99.90;;;;;;7341568;19;108820;-86
2023/03/05 10:04:24;;;;;;;;;;;8.70;99.90;;;;;;7340287;19;111085;-86
2023/03/05 10:06:53;;;;;;;;;;;8.80;99.90;;;;;;7343115;19;111083;-86
2023/03/05 10:09:41;;;;;;;;;;;8.80;99.90;;;;;;7339255;19;108557;-86
2023/03/05 10:12:15;;;;;;;;;;;8.90;99.90;;;;;;7345291;19;109578;-87
2023/03/05 10:14:42;;;;;;;;;;;8.90;99.90;;;;;;7335395;19;109555;-91
2023/03/05 10:17:14;;;;;;;;;;;8.90;99.90;;;;;;7340694;19;112891;-86
2023/03/05 10:20:08;;;;;;;;;;;8.90;99.90;;;;;;7342240;19;110865;-86
2023/03/05 10:22:46;;;;;;;;;;;8.90;99.90;;;;;;7340174;19;109652;-86
2023/03/05 10:25:22;;;;;;;;;;;9.00;99.90;;;;;;7341885;19;109332;-87
2023/03/05 10:27:51;;;;;;;;;;;9.10;99.90;;;;;;7337167;19;110322;-87
2023/03/05 10:30:25;;;;;;;;;;;9.20;99.90;;;;;;7339616;19;110508;-86
2023/03/05 10:33:03;;;;;;;;;;;9.20;99.90;;;;;;7338318;19;109359;-88
2023/03/05 10:35:33;;;;;;;;;;;9.10;99.90;;;;;;7342579;19;109838;-87
2023/03/05 10:38:20;;;;;;;;;;;9.20;99.90;;;;;;7338848;19;109744;-85
2023/03/05 10:40:59;;;;;;;;;;;9.30;99.90;;;;;;7337718;19;109891;-87
2023/03/05 10:43:41;;;;;;;;;;;9.40;99.90;;;;;;7333585;19;108728;-88
2023/03/05 10:46:14;;;;;;;;;;;9.40;99.90;;;;;;7340235;19;108634;-86
2023/03/05 10:48:57;;;;;;;;;;;9.50;99.90;;;;;;7335049;19;110550;-87
2023/03/05 10:51:33;;;;;;;;;;;9.40;99.90;;;;;;7336408;19;109533;-87
2023/03/05 10:54:02;;;;;;;;;;;9.30;99.90;;;;;;7314808;19;110744;-87
2023/03/05 10:56:30;;;;;;;;;;;9.20;99.90;;;;;;7330297;19;109958;-87
2023/03/05 10:59:00;;;;;;;;;;;9.10;99.90;;;;;;7339255;19;108513;-87
2023/03/05 11:01:28;;;;;;;;;;;9.10;99.90;;;;;;7330089;19;111732;-86
2023/03/05 11:04:05;;;;;;;;;;;9.10;99.90;;;;;;7335869;19;108886;-83
2023/03/05 11:06:40;;;;;;;;;;;8.70;99.90;;;;;;7335061;19;109911;-83
2023/03/05 11:09:23;;;;;;;;;;;8.20;99.90;;;;;;7337798;19;110351;-83
2023/03/05 11:12:04;;;;;;;;;;;8.00;99.90;;;;;;7335170;19;109104;-84
2023/03/05 11:14:32;;;;;;;;;;;7.80;99.90;;;;;;7338222;19;109239;-83
2023/03/05 11:17:00;;;;;;;;;;;7.70;99.90;;;;;;7342552;19;110262;-84
2023/03/05 11:19:31;;;;;;;;;;;7.70;99.90;;;;;;7344462;19;108584;-84
2023/03/05 11:22:19;;;;;;;;;;;7.60;99.90;;;;;;7337074;19;110279;-83
2023/03/05 11:25:13;;;;;;;;;;;7.60;99.90;;;;;;7336111;19;108952;-84
2023/03/05 11:27:53;;;;;;;;;;;7.70;99.90;;;;;;7337878;19;110071;-84
2023/03/05 11:30:20;;;;;;;;;;;7.80;99.90;;;;;;7338905;19;112799;-85
2023/03/05 11:32:47;;;;;;;;;;;7.80;99.90;;;;;;7337525;19;108996;-84
2023/03/05 11:35:28;;;;;;;;;;;7.90;99.90;;;;;;7336717;19;108834;-86
2023/03/05 11:38:02;;;;;;;;;;;7.90;99.90;;;;;;7337254;19;109907;-85
2023/03/05 11:40:30;;;;;;;;;;;8.10;99.90;;;;;;7330331;19;109097;-85
2023/03/05 11:42:58;;;;;;;;;;;8.00;99.90;;;;;;7341834;19;108785;-85
2023/03/05 11:45:27;;;;;;;;;;;8.00;99.90;;;;;;7334797;19;108511;-86
2023/03/05 11:48:14;;;;;;;;;;;8.00;99.90;;;;;;7338044;19;109707;-85
2023/03/05 11:50:42;;;;;;;;;;;8.00;99.90;;;;;;7335689;19;110032;-85
2023/03/05 11:53:18;;;;;;;;;;;8.10;99.90;;;;;;7336315;19;109809;-85
2023/03/05 11:55:47;;;;;;;;;;;8.20;99.90;;;;;;7339082;19;109182;-85
2023/03/05 11:58:14;;;;;;;;;;;8.30;99.90;;;;;;7336752;19;109908;-85
2023/03/05 12:00:42;;;;;;;;;;;8.40;99.90;;;;;;7330185;19;110387;-84
2023/03/05 12:03:32;;;;;;;;;;;8.50;99.90;;;;;;7333920;19;110337;-85
2023/03/05 12:06:14;;;;;;;;;;;8.60;99.90;;;;;;7342385;19;112723;-85
2023/03/05 12:08:43;;;;;;;;;;;8.60;99.90;;;;;;7335495;19;109130;-85
2023/03/05 12:11:16;;;;;;;;;;;8.70;99.90;;;;;;7335151;19;111293;-84
2023/03/05 12:14:03;;;;;;;;;;;8.90;99.90;;;;;;7335429;19;109232;-86
2023/03/05 12:16:33;;;;;;;;;;;8.90;99.90;;;;;;7333217;19;109002;-85
2023/03/05 12:19:06;;;;;;;;;;;8.90;99.90;;;;;;7331877;19;110437;-85
2023/03/05 12:21:39;;;;;;;;;;;8.90;99.90;;;;;;7335746;19;109480;-85
2023/03/05 12:24:22;;;;;;;;;;;8.90;99.90;;;;;;7335264;19;108893;-87
2023/03/05 12:26:55;;;;;;;;;;;9.00;99.90;;;;;;7335917;19;110963;-84
2023/03/05 12:29:32;;;;;;;;;;;9.00;99.90;;;;;;7339239;19;108531;-85
2023/03/05 12:32:00;;;;;;;;;;;9.00;99.90;;;;;;7334142;19;110940;-85
2023/03/05 12:34:34;;;;;;;;;;;9.10;99.90;;;;;;7335153;19;109419;-86
2023/03/05 12:37:01;;;;;;;;;;;9.10;99.90;;;;;;7334022;19;110225;-86
2023/03/05 12:39:38;;;;;;;;;;;9.10;99.90;;;;;;7333215;19;110276;-85
2023/03/05 12:42:25;;;;;;;;;;;9.20;99.90;;;;;;7334457;19;109051;-86
2023/03/05 12:45:10;;;;;;;;;;;9.20;99.90;;;;;;7334367;19;111317;-85
2023/03/05 12:47:40;;;;;;;;;;;9.20;99.90;;;;;;7325238;19;109927;-85
2023/03/05 12:50:26;;;;;;;;;;;9.30;99.90;;;;;;7333211;19;109503;-85
2023/03/05 12:52:53;;;;;;;;;;;9.30;99.90;;;;;;7339147;19;109368;-86
2023/03/05 12:55:43;;;;;;;;;;;9.30;99.90;;;;;;7334514;19;108438;-86
2023/03/05 12:58:24;;;;;;;;;;;9.40;99.90;;;;;;7334872;19;112285;-86
2023/03/05 13:00:58;;;;;;;;;;;9.40;99.90;;;;;;7334554;19;110494;-86
2023/03/05 13:03:32;;;;;;;;;;;9.50;99.90;;;;;;7334003;19;110827;-86
2023/03/05 13:05:59;;;;;;;;;;;9.40;99.90;;;;;;7333118;19;109843;-85
2023/03/05 13:08:30;;;;;;;;;;;9.40;99.90;;;;;;7334340;19;109111;-86
2023/03/05 13:11:03;;;;;;;;;;;9.50;99.90;;;;;;7339883;19;108620;-86
2023/03/05 13:13:33;;;;;;;;;;;9.40;99.90;;;;;;7348295;19;109385;-86
2023/03/05 13:16:01;;;;;;;;;;;9.50;99.90;;;;;;7341507;19;109028;-86
2023/03/05 13:18:29;;;;;;;;;;;9.40;99.90;;;;;;7339512;19;109073;-88
2023/03/05 13:21:04;;;;;;;;;;;9.40;99.90;;;;;;7341705;19;110597;-86
2023/03/05 13:23:31;;;;;;;;;;;9.30;99.90;;;;;;7341362;19;108409;-86
2023/03/05 13:26:19;;;;;;;;;;;9.30;99.90;;;;;;7335291;19;111583;-86
2023/03/05 13:29:06;;;;;;;;;;;9.20;99.90;;;;;;7330949;19;109677;-86
2023/03/05 13:31:53;;;;;;;;;;;9.20;99.90;;;;;;7337577;19;108905;-86
2023/03/05 13:34:28;;;;;;;;;;;9.20;99.90;;;;;;7334620;19;111823;-87
2023/03/05 13:37:16;;;;;;;;;;;9.10;99.90;;;;;;7340261;19;113196;-86
2023/03/05 13:39:47;;;;;;;;;;;9.10;99.90;;;;;;7338049;19;110347;-86
2023/03/05 13:42:14;;;;;;;;;;;9.20;99.90;;;;;;7335488;19;109843;-86
2023/03/05 13:44:41;;;;;;;;;;;9.10;99.90;;;;;;7335769;19;109057;-87
2023/03/05 13:47:14;;;;;;;;;;;9.00;99.90;;;;;;7336019;19;109225;-86
2023/03/05 13:49:41;;;;;;;;;;;9.00;99.90;;;;;;7334209;19;109236;-86
2023/03/05 13:52:09;;;;;;;;;;;9.00;99.90;;;;;;7335469;19;108550;-87
2023/03/05 13:54:36;;;;;;;;;;;9.00;99.90;;;;;;7338744;19;108922;-87
2023/03/05 13:57:06;;;;;;;;;;;9.00;99.90;;;;;;7336843;19;110996;-86
2023/03/05 13:59:34;;;;;;;;;;;8.90;99.90;;;;;;7343232;19;109977;-87
2023/03/05 14:02:31;;;;;;;;;;;8.90;99.90;;;;;;7336690;19;110029;-87
2023/03/05 14:04:59;;;;;;;;;;;8.80;99.90;;;;;;7336949;19;109107;-86
2023/03/05 14:07:37;;;;;;;;;;;8.80;99.90;;;;;;7338603;19;109225;-87
2023/03/05 14:10:24;;;;;;;;;;;8.80;99.90;;;;;;7338337;19;110008;-88
2023/03/05 14:12:51;;;;;;;;;;;8.80;99.90;;;;;;7340367;19;108677;-87
2023/03/05 14:15:23;;;;;;;;;;;8.70;99.90;;;;;;7335614;19;109648;-87
2023/03/05 14:17:50;;;;;;;;;;;8.70;99.90;;;;;;7336092;19;109791;-88
2023/03/05 14:20:21;;;;;;;;;;;8.60;99.90;;;;;;7338190;19;109045;-88
2023/03/05 14:22:50;;;;;;;;;;;8.60;99.90;;;;;;7343384;19;109110;-88
2023/03/05 14:25:38;;;;;;;;;;;8.60;99.90;;;;;;7340860;19;109073;-87
2023/03/05 14:28:19;;;;;;;;;;;8.50;99.90;;;;;;7335759;19;108827;-87
2023/03/05 14:30:48;;;;;;;;;;;8.50;99.90;;;;;;7335553;19;110053;-87
2023/03/05 14:33:22;;;;;;;;;;;8.50;99.90;;;;;;7339281;19;109010;-88
2023/03/05 14:35:49;;;;;;;;;;;8.50;99.90;;;;;;7339276;19;109053;-88